Flight Track Log - Related Links

Times and Time Zones

All times are in EDT time to prevent confusion due to time zone crossing. See the SWA1960 flight status page for this flight to view local times or setup timezone preferences in your user account.


Time Position Orientation Groundspeed Altitude Reporting Facility
EDT Latitude Longitude Course Direction KTS MPH feet Rate Location/Type
Mon 02:25:05 PM 39.1500 -76.6500 153° Southeast 159 183 1,500  Level Potomac TRACON
Mon 02:26:11 PM 39.1000 -76.6167 153° Southeast 219 252 4,000 2,429 Climbing Potomac TRACON
Mon 02:27:11 PM 39.0333 -76.5500 142° Southeast 263 303 6,600 2,765 Climbing Potomac TRACON
Mon 02:28:06 PM 38.9833 -76.5000 142° Southeast 270 311 9,300 2,713 Climbing Potomac TRACON
Mon 02:29:06 PM 38.9000 -76.4833 171° South 308 354 11,800 2,300 Climbing Potomac TRACON
Mon 02:30:06 PM 38.8333 -76.5333 210° Southwest 340 391 13,900 1,400 Climbing Potomac TRACON
Mon 02:31:06 PM 38.7333 -76.6000 207° Southwest 353 406 14,600 1,950 Climbing Potomac TRACON
Mon 02:32:06 PM 38.6500 -76.6667 212° Southwest 369 425 17,800 2,400 Climbing Potomac TRACON
Mon 02:32:31 PM 38.6250 -76.6811 204° Southwest 376 433 18,000 847 Climbing Washington Center
Mon 02:33:31 PM 38.5264 -76.7275 200° South 393 452 19,000 900 Climbing Washington Center
Mon 02:34:31 PM 38.4183 -76.7128 174° South 382 440 19,800 2,050 Climbing Washington Center
Mon 02:35:31 PM 38.2994 -76.6922 172° South 388 447 23,100 3,000 Climbing Washington Center
Mon 02:36:31 PM 38.1892 -76.6750 173° South 394 453 25,800 1,650 Climbing Washington Center
Mon 02:37:31 PM 38.0808 -76.6628 175° South 394 453 26,400 1,200 Climbing Washington Center
Mon 02:38:31 PM 37.9725 -76.6481 174° South 389 448 28,200 2,050 Climbing Washington Center
Mon 02:39:31 PM 37.8661 -76.6569 184° South 389 448 30,500 2,250 Climbing Washington Center
Mon 02:40:31 PM 37.7597 -76.6714 186° South 384 442 32,700 2,200 Climbing Washington Center
Mon 02:41:31 PM 37.6614 -76.6806 184° South 384 442 34,900 2,050 Climbing Washington Center
Mon 02:42:31 PM 37.5653 -76.6947 187° South 369 425 36,800 1,450 Climbing Washington Center
Mon 02:43:31 PM 37.4694 -76.7064 186° South 357 411 37,800 600 Climbing Washington Center
Mon 02:44:31 PM 37.3731 -76.7364 194° South 352 405 38,000 100 Climbing Washington Center
Mon 02:45:31 PM 37.2808 -76.7769 199° South 352 405 38,000  Level Washington Center
Mon 02:46:31 PM 37.1889 -76.8172 199° South 358 412 38,000  Level Washington Center
Mon 02:47:31 PM 37.0944 -76.8547 198° South 358 412 38,000  Level Washington Center
Mon 02:48:31 PM 37.0022 -76.8947 199° South 358 412 38,000  Level Washington Center
Mon 02:49:31 PM 36.9100 -76.9322 198° South 353 406 38,000  Level Washington Center
Mon 02:50:31 PM 36.8200 -76.9669 197° South 348 400 38,000  Level Washington Center
Mon 02:51:31 PM 36.7297 -77.0069 200° South 348 400 38,000  Level Washington Center
Mon 02:52:31 PM 36.6497 -77.0675 211° Southwest 343 395 38,000  Level Washington Center
Mon 02:53:31 PM 36.5781 -77.1336 217° Southwest 338 389 38,000  Level Washington Center
Mon 02:54:31 PM 36.5042 -77.1992 216° Southwest 338 389 38,000  Level Washington Center
Mon 02:55:31 PM 36.4322 -77.2622 215° Southwest 332 382 38,000  Level Washington Center
Mon 02:56:31 PM 36.3564 -77.3250 214° Southwest 332 382 38,000  Level Washington Center
Mon 02:57:31 PM 36.2844 -77.3906 216° Southwest 332 382 38,000 -200 Level Washington Center
Mon 02:58:31 PM 36.2125 -77.4583 217° Southwest 332 382 37,600 -600 Descending Washington Center
Mon 02:59:31 PM 36.1511 -77.5108 215° Southwest 321 369 36,800 -800 Descending Washington Center
Mon 03:00:31 PM 36.0750 -77.5786 216° Southwest 326 375 36,000 -400 Descending Washington Center
Mon 03:01:31 PM 35.9944 -77.6458 214° Southwest 336 387 36,000  Level Washington Center
Mon 03:02:31 PM 35.9181 -77.7156 216° Southwest 347 399 36,000  Level Washington Center
Mon 03:03:31 PM 35.8397 -77.7803 214° Southwest 347 399 36,000  Level Washington Center
Mon 03:04:31 PM 35.7592 -77.8497 215° Southwest 353 406 36,000  Level Washington Center
Mon 03:05:31 PM 35.6786 -77.9214 216° Southwest 353 406 36,000  Level Washington Center
Mon 03:06:31 PM 35.5981 -77.9881 214° Southwest 358 412 36,000 -150 Level Washington Center
Mon 03:07:31 PM 35.5194 -78.0547 215° Southwest 363 418 35,700 -700 Descending Washington Center
Mon 03:08:31 PM 35.4367 -78.1261 215° Southwest 363 418 34,600 -1,000 Descending Washington Center
Mon 03:09:31 PM 35.3517 -78.1894 211° Southwest 363 418 33,700 -1,000 Descending Washington Center
Mon 03:10:31 PM 35.2667 -78.2581 213° Southwest 369 425 32,600 -1,050 Descending Washington Center
Mon 03:11:31 PM 35.1817 -78.3239 212° Southwest 369 425 31,600 -1,000 Descending Washington Center
Mon 03:12:31 PM 35.0967 -78.3894 212° Southwest 369 425 30,600 -1,000 Descending Washington Center
Mon 03:13:31 PM 35.0139 -78.4550 213° Southwest 369 425 29,600 -1,050 Descending Washington Center
Mon 03:14:31 PM 34.9289 -78.5206 212° Southwest 369 425 28,500 -800 Descending Washington Center
Mon 03:15:31 PM 34.8481 -78.5808 211° Southwest 357 411 28,000 -191 Descending Washington Center
Mon 03:17:08 PM 34.7153 -78.6797 211° Southwest 349 402 28,000  Level Jacksonville Center
Mon 03:18:08 PM 34.6339 -78.7419 212° Southwest 349 402 28,000  Level Jacksonville Center
Mon 03:19:08 PM 34.5525 -78.8036 212° Southwest 354 407 28,000  Level Jacksonville Center
Mon 03:20:08 PM 34.4711 -78.8706 214° Southwest 354 407 28,000  Level Jacksonville Center
Mon 03:21:08 PM 34.3917 -78.9322 213° Southwest 359 413 28,000 -500 Level Jacksonville Center
Mon 03:22:08 PM 34.3081 -78.9936 211° Southwest 359 413 27,000 -950 Descending Jacksonville Center
Mon 03:23:08 PM 34.2242 -79.0428 206° Southwest 349 402 26,100 -1,000 Descending Jacksonville Center
Mon 03:24:08 PM 34.1336 -79.0842 201° Southwest 349 402 25,000 -1,050 Descending Jacksonville Center
Mon 03:25:08 PM 34.0453 -79.1258 201° Southwest 349 402 24,000 -1,000 Descending Jacksonville Center
Mon 03:26:08 PM 33.9564 -79.1622 199° South 349 402 23,000 -1,300 Descending Jacksonville Center
Mon 03:27:08 PM 33.8722 -79.2033 202° Southwest 344 396 21,400 -1,500 Descending Jacksonville Center
Mon 03:28:08 PM 33.7856 -79.2394 199° South 338 389 20,000 -1,750 Descending Jacksonville Center
Mon 03:29:08 PM 33.7039 -79.3028 213° Southwest 333 383 17,900 -1,600 Descending Jacksonville Center
Mon 03:30:08 PM 33.6283 -79.3581 211° Southwest 321 369 16,800 -1,050 Descending Jacksonville Center
Mon 03:31:08 PM 33.5589 -79.4108 212° Southwest 316 364 15,800 -1,350 Descending Jacksonville Center
Mon 03:32:08 PM 33.4833 -79.4686 213° Southwest 316 364 14,100 -1,800 Descending Jacksonville Center
Mon 03:33:08 PM 33.4075 -79.5211 210° Southwest 316 364 12,200 -1,450 Descending Jacksonville Center
Mon 03:34:08 PM 33.3269 -79.5589 201° Southwest 311 358 11,200 -800 Descending Jacksonville Center
Mon 03:35:08 PM 33.2486 -79.5942 201° Southwest 311 358 10,600 -1,000 Descending Jacksonville Center
Mon 03:36:08 PM 33.1744 -79.6292 202° Southwest 306 352 9,200 -1,450 Descending Jacksonville Center
Mon 03:37:08 PM 33.1000 -79.6617 200° South 295 339 7,700 -1,400 Descending Jacksonville Center
Mon 03:38:08 PM 33.0300 -79.6989 204° Southwest 289 333 6,400 -1,300 Descending Jacksonville Center
Mon 03:39:08 PM 32.9753 -79.7603 223° Southwest 281 323 5,100 -1,300 Descending Jacksonville Center
Mon 03:40:08 PM 32.9269 -79.8314 231° Southwest 274 315 3,800 -1,150 Descending Jacksonville Center
Mon 03:41:08 PM 32.8867 -79.8919 232° Southwest 274 315 2,800 -1,000 Descending Jacksonville Center
Mon 03:43:00 PM 32.8986 -80.0405 344° North  Level Estimated
Mon 03:50:00 PM 32.8986 -80.0405 348° North  Level Estimated
Mon 03:51:00 PM 32.8986 -80.0405 348° North  Level Estimated
Mon 03:52:00 PM 32.8986 -80.0405 348° North  Level Estimated
Mon 03:53:00 PM 32.8986 -80.0405 348° North  Level Estimated
Mon 03:54:00 PM 32.8986 -80.0405 348° North  Level Estimated
Mon 03:55:00 PM 32.8986 -80.0405 348° North  Level Estimated
Mon 03:56:00 PM 32.8986 -80.0405 348° North  Level Estimated

Login

Don't have an account? Register now (free) for customized features, flight alerts, and more!